createdAt,value
2019-03-28T00:02:04.485Z,21.47
2019-03-28T00:04:36.716Z,22.43
2019-03-28T00:07:09.858Z,22.77
2019-03-28T00:09:42.032Z,21.30
2019-03-28T00:12:15.111Z,21.93
2019-03-28T00:14:47.047Z,22.13
2019-03-28T00:17:19.329Z,21.80
2019-03-28T00:19:53.244Z,24.17
2019-03-28T00:22:36.737Z,22.83
2019-03-28T00:25:10.783Z,24.17
2019-03-28T00:27:42.775Z,23.77
2019-03-28T00:30:15.932Z,22.90
2019-03-28T00:32:47.966Z,22.97
2019-03-28T00:35:19.877Z,23.27
2019-03-28T00:37:51.834Z,22.60
2019-03-28T00:40:23.711Z,22.97
2019-03-28T00:42:55.725Z,23.40
2019-03-28T00:45:29.337Z,22.30
2019-03-28T00:48:01.310Z,22.83
2019-03-28T00:50:34.644Z,22.67
2019-03-28T00:53:06.928Z,21.90
2019-03-28T00:55:39.141Z,23.17
2019-03-28T00:58:11.133Z,21.80
2019-03-28T01:00:43.087Z,21.73
2019-03-28T01:03:15.341Z,21.50
2019-03-28T01:05:47.665Z,20.00
2019-03-28T01:08:19.516Z,20.87
2019-03-28T01:10:52.230Z,21.37
2019-03-28T01:13:25.571Z,21.47
2019-03-28T01:15:57.647Z,21.57
2019-03-28T01:18:29.714Z,24.90
2019-03-28T01:21:01.966Z,23.60
2019-03-28T01:23:33.969Z,23.90
2019-03-28T01:26:05.932Z,25.93
2019-03-28T01:28:38.867Z,26.07
2019-03-28T01:31:11.913Z,26.80
2019-03-28T01:33:43.944Z,27.37
2019-03-28T01:36:15.976Z,28.70
2019-03-28T01:38:47.999Z,28.50
2019-03-28T01:41:19.936Z,27.40
2019-03-28T01:43:52.931Z,28.87
2019-03-28T01:46:25.152Z,29.87
2019-03-28T01:48:58.627Z,29.20
2019-03-28T01:51:31.173Z,28.80
2019-03-28T01:54:03.463Z,29.33
2019-03-28T01:56:36.321Z,29.87
2019-03-28T01:59:08.322Z,30.47
2019-03-28T02:01:40.588Z,29.90
2019-03-28T02:04:12.454Z,31.63
2019-03-28T02:06:44.315Z,31.27
2019-03-28T02:09:16.722Z,32.00
2019-03-28T02:11:48.851Z,32.17
2019-03-28T02:14:20.724Z,30.00
2019-03-28T02:16:52.596Z,29.90
2019-03-28T02:19:24.579Z,31.73
2019-03-28T02:21:56.591Z,31.30
2019-03-28T02:24:28.593Z,31.27
2019-03-28T02:27:02.439Z,30.53
2019-03-28T02:29:34.309Z,31.87
2019-03-28T02:32:06.198Z,30.53
2019-03-28T02:34:38.590Z,29.87
2019-03-28T02:37:10.486Z,32.70
2019-03-28T02:39:42.905Z,32.53
2019-03-28T02:42:14.965Z,32.70
2019-03-28T02:44:46.969Z,32.20
2019-03-28T02:47:19.541Z,32.43
2019-03-28T02:49:52.520Z,33.23
2019-03-28T02:52:24.407Z,32.30
2019-03-28T02:54:57.940Z,33.80
2019-03-28T02:57:41.094Z,33.73
2019-03-28T03:00:06.263Z,34.07
2019-03-28T03:02:38.388Z,33.43
2019-03-28T03:05:10.731Z,33.70
2019-03-28T03:07:42.831Z,34.30
2019-03-28T03:10:14.874Z,33.33
2019-03-28T03:12:46.725Z,34.07
2019-03-28T03:15:19.046Z,32.97
2019-03-28T03:17:51.111Z,32.57
2019-03-28T03:20:24.766Z,31.17
2019-03-28T03:22:56.600Z,32.80
2019-03-28T03:25:28.588Z,30.57
2019-03-28T03:28:00.559Z,32.47
2019-03-28T03:30:32.467Z,30.47
2019-03-28T03:33:04.409Z,33.03
2019-03-28T03:35:36.625Z,32.43
2019-03-28T03:38:09.262Z,31.53
2019-03-28T03:40:41.638Z,30.67
2019-03-28T03:43:13.602Z,30.70
2019-03-28T03:45:45.567Z,29.33
2019-03-28T03:48:17.558Z,29.20
2019-03-28T03:50:49.437Z,30.30
2019-03-28T03:53:21.569Z,28.80
2019-03-28T03:55:54.021Z,25.67
2019-03-28T03:58:26.248Z,24.10
2019-03-28T04:00:58.420Z,24.97
2019-03-28T04:03:30.445Z,29.00
2019-03-28T04:06:02.360Z,27.50
2019-03-28T04:08:34.745Z,28.57
2019-03-28T04:11:07.206Z,29.20
2019-03-28T04:13:39.169Z,28.50
2019-03-28T04:16:11.489Z,28.73
2019-03-28T04:18:43.362Z,27.90
2019-03-28T04:21:15.531Z,26.60
2019-03-28T04:23:47.450Z,29.20
2019-03-28T04:26:19.707Z,27.47
2019-03-28T04:28:51.603Z,27.63
2019-03-28T04:31:23.482Z,25.83
2019-03-28T04:33:55.925Z,28.37
2019-03-28T04:36:29.212Z,27.90
2019-03-28T04:39:01.174Z,28.40
2019-03-28T04:41:34.288Z,28.90
2019-03-28T04:44:06.760Z,31.03
2019-03-28T04:46:39.083Z,28.03
2019-03-28T04:49:10.938Z,31.10
2019-03-28T04:51:42.852Z,30.73
2019-03-28T04:54:15.040Z,30.80
2019-03-28T04:56:46.972Z,30.93
2019-03-28T04:59:19.152Z,31.90
2019-03-28T05:02:01.285Z,32.13
2019-03-28T05:04:24.918Z,30.47
2019-03-28T05:06:57.890Z,32.73
2019-03-28T05:09:30.212Z,31.13
2019-03-28T05:12:02.703Z,31.93
2019-03-28T05:14:35.076Z,31.00
2019-03-28T05:17:07.314Z,28.17
2019-03-28T05:19:39.281Z,26.53
2019-03-28T05:22:12.306Z,25.30
2019-03-28T05:24:44.328Z,26.27
2019-03-28T05:27:16.695Z,25.33
2019-03-28T05:29:48.787Z,27.23
2019-03-28T05:32:20.846Z,28.07
2019-03-28T05:34:53.558Z,28.23
2019-03-28T05:37:25.573Z,28.53
2019-03-28T05:39:57.965Z,29.83
2019-03-28T05:42:30.352Z,29.43
2019-03-28T05:45:02.507Z,28.70
2019-03-28T05:47:34.393Z,33.13
2019-03-28T05:50:07.048Z,32.90
2019-03-28T05:52:42.283Z,34.77
2019-03-28T05:55:14.325Z,34.10
2019-03-28T05:57:49.682Z,34.40
2019-03-28T06:00:23.532Z,32.50
2019-03-28T06:02:55.689Z,32.87
2019-03-28T06:05:27.959Z,34.60
2019-03-28T06:08:00.474Z,33.77
2019-03-28T06:10:33.987Z,32.50
2019-03-28T06:13:06.431Z,31.80
2019-03-28T06:15:41.199Z,32.23
2019-03-28T06:18:15.923Z,32.97
2019-03-28T06:20:48.567Z,32.60
2019-03-28T06:23:20.853Z,33.17
2019-03-28T06:25:52.842Z,31.47
2019-03-28T06:28:25.342Z,32.70
2019-03-28T06:30:57.388Z,33.67
2019-03-28T06:33:29.438Z,33.70
2019-03-28T06:36:02.308Z,32.43
2019-03-28T06:38:34.553Z,32.80
2019-03-28T06:41:06.784Z,34.27
2019-03-28T06:43:41.789Z,32.57
2019-03-28T06:46:13.085Z,33.17
2019-03-28T06:48:47.328Z,32.80
2019-03-28T06:51:20.056Z,32.90
2019-03-28T06:53:56.993Z,32.33
2019-03-28T06:56:27.826Z,32.97
2019-03-28T06:59:00.723Z,29.57
2019-03-28T07:01:32.737Z,28.77
2019-03-28T07:04:04.741Z,28.40
2019-03-28T07:06:36.907Z,29.27
2019-03-28T07:09:10.028Z,28.73
2019-03-28T07:11:42.446Z,32.63
2019-03-28T07:14:14.979Z,31.13
2019-03-28T07:16:48.910Z,30.60
2019-03-28T07:19:23.411Z,30.40
2019-03-28T07:21:55.411Z,31.57
2019-03-28T07:24:29.565Z,31.00
2019-03-28T07:27:02.721Z,31.33
2019-03-28T07:29:34.750Z,30.73
2019-03-28T07:32:06.791Z,29.73
2019-03-28T07:34:38.842Z,30.23
2019-03-28T07:37:13.428Z,29.03
2019-03-28T07:39:45.717Z,28.27
2019-03-28T07:42:18.387Z,27.87
2019-03-28T07:44:51.817Z,27.27
2019-03-28T07:47:24.457Z,24.03
2019-03-28T07:49:56.793Z,23.70
2019-03-28T07:52:28.649Z,23.67
2019-03-28T07:55:00.690Z,23.63
2019-03-28T07:57:32.670Z,21.63
2019-03-28T08:00:06.428Z,23.43
2019-03-28T08:02:38.447Z,21.90
2019-03-28T08:05:11.615Z,21.30
2019-03-28T08:07:45.473Z,22.03
2019-03-28T08:10:18.699Z,22.97
2019-03-28T08:12:53.740Z,22.40
2019-03-28T08:15:26.038Z,21.90
2019-03-28T08:17:58.655Z,22.43
2019-03-28T08:20:30.698Z,23.27
2019-03-28T08:23:02.867Z,20.80
2019-03-28T08:25:34.894Z,19.27
2019-03-28T08:28:06.788Z,18.90
2019-03-28T08:30:40.029Z,18.30
2019-03-28T08:33:13.397Z,18.40
2019-03-28T08:35:45.752Z,18.50
2019-03-28T08:38:18.146Z,15.50
2019-03-28T08:40:51.676Z,15.27
2019-03-28T08:43:23.908Z,13.53
2019-03-28T08:45:55.911Z,13.70
2019-03-28T08:48:28.022Z,13.97
2019-03-28T08:51:00.208Z,11.77
2019-03-28T08:53:32.481Z,12.40
2019-03-28T08:56:04.504Z,12.63
2019-03-28T08:58:38.355Z,10.47
2019-03-28T09:01:10.626Z,8.30
2019-03-28T09:03:42.511Z,9.47
2019-03-28T09:06:17.081Z,10.70
2019-03-28T09:08:50.182Z,10.00
2019-03-28T09:11:22.292Z,10.90
2019-03-28T09:13:54.533Z,10.03
2019-03-28T09:16:26.598Z,11.03
2019-03-28T09:18:59.184Z,9.47
2019-03-28T09:21:32.202Z,11.20
2019-03-28T09:24:04.963Z,9.27
2019-03-28T09:26:37.119Z,9.90
2019-03-28T09:29:09.054Z,9.80
2019-03-28T09:31:41.558Z,8.60
2019-03-28T09:34:13.451Z,10.30
2019-03-28T09:36:45.484Z,10.70
2019-03-28T09:39:17.759Z,9.23
2019-03-28T09:41:49.880Z,10.10
2019-03-28T09:44:21.884Z,10.30
2019-03-28T09:46:53.793Z,8.97
2019-03-28T09:49:25.869Z,9.17
2019-03-28T09:51:58.012Z,8.90
2019-03-28T09:54:30.341Z,8.20
2019-03-28T09:57:02.493Z,9.20
2019-03-28T09:59:35.654Z,9.37
2019-03-28T10:02:08.095Z,7.50
2019-03-28T10:04:40.061Z,7.70
2019-03-28T10:07:12.140Z,7.73
2019-03-28T10:09:44.397Z,7.33
2019-03-28T10:12:16.923Z,6.90
2019-03-28T10:14:48.857Z,8.07
2019-03-28T10:17:21.177Z,7.43
2019-03-28T10:19:53.474Z,6.80
2019-03-28T10:22:25.614Z,6.50
2019-03-28T10:24:58.893Z,7.10
2019-03-28T10:27:30.872Z,7.33
2019-03-28T10:30:02.981Z,6.10
2019-03-28T10:32:36.222Z,5.67
2019-03-28T10:35:08.360Z,5.57
2019-03-28T10:37:40.817Z,5.27
2019-03-28T10:40:12.947Z,4.17
2019-03-28T10:42:45.958Z,4.60
2019-03-28T10:45:18.213Z,2.60
2019-03-28T10:47:50.395Z,3.70
2019-03-28T10:50:23.446Z,2.93
2019-03-28T10:52:55.670Z,3.40
2019-03-28T10:55:28.761Z,3.60
2019-03-28T10:58:00.799Z,4.23
2019-03-28T11:00:33.819Z,4.03
2019-03-28T11:03:06.009Z,5.20
2019-03-28T11:05:38.027Z,4.93
2019-03-28T11:08:10.607Z,5.47
2019-03-28T11:10:42.598Z,5.33
2019-03-28T11:13:14.438Z,5.20
2019-03-28T11:15:47.004Z,5.40
2019-03-28T11:18:19.886Z,4.30
2019-03-28T11:20:51.986Z,3.90
2019-03-28T11:23:24.029Z,4.03
2019-03-28T11:25:57.441Z,3.90
2019-03-28T11:28:30.120Z,3.60
2019-03-28T11:31:02.100Z,2.77
2019-03-28T11:33:34.064Z,3.37
2019-03-28T11:36:07.466Z,3.73
2019-03-28T11:38:39.659Z,4.00
2019-03-28T11:41:11.490Z,4.00
2019-03-28T11:43:43.361Z,4.07
2019-03-28T11:46:15.456Z,3.70
2019-03-28T11:48:47.914Z,3.70
2019-03-28T11:51:20.064Z,4.20
2019-03-28T11:53:51.943Z,4.83
2019-03-28T11:56:24.290Z,4.40
2019-03-28T11:58:56.780Z,4.20
2019-03-28T12:01:28.814Z,4.20
2019-03-28T12:04:00.953Z,3.97
2019-03-28T12:06:32.942Z,4.60
2019-03-28T12:09:06.942Z,4.80
2019-03-28T12:11:38.954Z,4.50
2019-03-28T12:14:11.739Z,4.50
2019-03-28T12:16:43.764Z,5.13
2019-03-28T12:19:17.711Z,5.57
2019-03-28T12:21:49.233Z,5.50
2019-03-28T12:24:21.229Z,5.40
2019-03-28T12:26:53.387Z,4.97
2019-03-28T12:29:26.284Z,4.97
2019-03-28T12:31:58.180Z,5.53
2019-03-28T12:34:30.213Z,4.80
2019-03-28T12:37:02.249Z,5.77
2019-03-28T12:39:34.188Z,6.10
2019-03-28T12:42:06.583Z,6.63
2019-03-28T12:44:38.884Z,5.47
2019-03-28T12:47:10.774Z,5.90
2019-03-28T12:49:43.101Z,6.00
2019-03-28T12:52:15.137Z,5.47
2019-03-28T12:54:47.080Z,5.57
2019-03-28T12:57:19.065Z,5.80
2019-03-28T12:59:53.477Z,5.80
2019-03-28T13:02:31.416Z,5.70
2019-03-28T13:04:59.389Z,5.80
2019-03-28T13:07:31.479Z,5.93
2019-03-28T13:10:04.095Z,5.50
2019-03-28T13:12:38.038Z,5.27
2019-03-28T13:15:10.829Z,5.10
2019-03-28T13:17:42.935Z,5.33
2019-03-28T13:20:15.282Z,5.40
2019-03-28T13:22:47.569Z,5.67
2019-03-28T13:25:19.631Z,5.73
2019-03-28T13:27:51.602Z,4.73
2019-03-28T13:30:24.203Z,4.50
2019-03-28T13:32:56.300Z,4.90
2019-03-28T13:35:28.610Z,5.03
2019-03-28T13:38:01.215Z,5.60
2019-03-28T13:40:33.024Z,5.80
2019-03-28T13:43:05.701Z,5.70
2019-03-28T13:45:37.578Z,5.97
2019-03-28T13:48:09.845Z,5.80
2019-03-28T13:50:41.753Z,5.80
2019-03-28T13:53:14.395Z,5.27
2019-03-28T13:55:46.700Z,6.07
2019-03-28T13:58:19.001Z,5.50
2019-03-28T14:00:50.855Z,5.37
2019-03-28T14:03:22.693Z,4.83
2019-03-28T14:05:54.544Z,5.90
2019-03-28T14:08:26.629Z,5.63
2019-03-28T14:10:58.513Z,5.43
2019-03-28T14:13:33.793Z,5.77
2019-03-28T14:16:05.606Z,5.00
2019-03-28T14:18:37.468Z,4.43
2019-03-28T14:21:09.397Z,5.00
2019-03-28T14:23:41.438Z,4.80
2019-03-28T14:26:13.719Z,5.63
2019-03-28T14:28:45.750Z,5.47
2019-03-28T14:31:18.047Z,5.70
2019-03-28T14:33:49.981Z,5.33
2019-03-28T14:36:25.047Z,5.30
2019-03-28T14:38:55.700Z,5.00
2019-03-28T14:41:27.734Z,5.50
2019-03-28T14:43:59.545Z,5.80
2019-03-28T14:46:31.603Z,6.50
2019-03-28T14:49:04.033Z,7.07
2019-03-28T14:51:35.936Z,7.43
2019-03-28T14:54:07.933Z,7.10
2019-03-28T14:56:40.982Z,6.87
2019-03-28T14:59:14.006Z,5.77
2019-03-28T15:01:45.890Z,6.60
2019-03-28T15:04:19.233Z,6.83
2019-03-28T15:06:51.210Z,7.20
2019-03-28T15:09:23.118Z,6.50
2019-03-28T15:11:54.910Z,6.80
2019-03-28T15:14:26.901Z,7.10
2019-03-28T15:16:58.805Z,6.70
2019-03-28T15:19:30.684Z,6.37
2019-03-28T15:22:02.506Z,6.50
2019-03-28T15:24:34.279Z,6.63
2019-03-28T15:27:06.718Z,6.63
2019-03-28T15:29:38.777Z,6.77
2019-03-28T15:32:10.889Z,6.60
2019-03-28T15:34:42.796Z,5.27
2019-03-28T15:37:14.782Z,5.47
2019-03-28T15:39:46.893Z,5.70
2019-03-28T15:42:18.812Z,5.70
2019-03-28T15:44:51.020Z,6.30
2019-03-28T15:47:23.155Z,5.57
2019-03-28T15:49:55.134Z,4.87
2019-03-28T15:52:27.724Z,4.40
2019-03-28T15:55:00.291Z,4.60
2019-03-28T15:57:32.040Z,4.00
2019-03-28T16:00:04.195Z,3.60
2019-03-28T16:02:37.095Z,3.40
2019-03-28T16:05:09.142Z,3.03
2019-03-28T16:07:41.399Z,3.17
2019-03-28T16:10:15.034Z,2.90
2019-03-28T16:12:47.389Z,2.90
2019-03-28T16:15:19.494Z,2.67
2019-03-28T16:17:51.421Z,2.10
2019-03-28T16:20:23.755Z,2.17
2019-03-28T16:22:55.983Z,2.23
2019-03-28T16:25:28.407Z,2.30
2019-03-28T16:28:00.535Z,2.13
2019-03-28T16:30:37.284Z,2.20
2019-03-28T16:33:10.411Z,2.27
2019-03-28T16:35:42.451Z,2.43
2019-03-28T16:38:14.782Z,2.70
2019-03-28T16:40:47.056Z,2.50
2019-03-28T16:43:19.370Z,2.90
2019-03-28T16:45:51.471Z,3.20
2019-03-28T16:48:23.383Z,2.90
2019-03-28T16:50:55.179Z,2.90
2019-03-28T16:53:27.591Z,3.17
2019-03-28T16:55:59.652Z,2.77
2019-03-28T16:58:31.549Z,3.30
2019-03-28T17:01:04.030Z,2.70
2019-03-28T17:03:36.285Z,3.30
2019-03-28T17:06:08.817Z,3.30
2019-03-28T17:08:43.705Z,3.13
2019-03-28T17:11:15.890Z,3.40
2019-03-28T17:13:48.193Z,3.50
2019-03-28T17:16:20.096Z,3.33
2019-03-28T17:18:52.478Z,2.80
2019-03-28T17:21:25.133Z,6.63
2019-03-28T17:23:58.677Z,6.97
2019-03-28T17:26:31.035Z,3.93
2019-03-28T17:29:02.989Z,3.00
2019-03-28T17:31:34.930Z,2.70
2019-03-28T17:34:07.002Z,3.27
2019-03-28T17:36:40.076Z,2.80
2019-03-28T17:39:12.022Z,3.00
2019-03-28T17:41:43.919Z,3.10
2019-03-28T17:44:15.845Z,4.00
2019-03-28T17:46:47.973Z,6.20
2019-03-28T17:49:19.857Z,6.40
2019-03-28T17:51:52.560Z,4.80
2019-03-28T17:54:24.465Z,7.80
2019-03-28T17:56:57.555Z,8.53
2019-03-28T17:59:29.442Z,6.90
2019-03-28T18:02:01.434Z,5.63
2019-03-28T18:04:47.214Z,5.37
2019-03-28T18:07:08.386Z,5.27
2019-03-28T18:09:40.547Z,4.83
2019-03-28T18:12:13.119Z,4.00
2019-03-28T18:14:45.638Z,4.13
2019-03-28T18:17:17.678Z,3.87
2019-03-28T18:19:49.912Z,4.20
2019-03-28T18:22:22.054Z,4.10
2019-03-28T18:24:54.738Z,4.53
2019-03-28T18:27:30.724Z,4.27
2019-03-28T18:30:05.346Z,3.30
2019-03-28T18:32:39.313Z,4.07
2019-03-28T18:35:11.284Z,4.23
2019-03-28T18:37:44.851Z,4.17
2019-03-28T18:40:17.602Z,4.87
2019-03-28T18:42:49.686Z,5.07
2019-03-28T18:45:21.829Z,5.90
2019-03-28T18:47:53.892Z,5.73
2019-03-28T18:50:26.248Z,5.67
2019-03-28T18:52:59.141Z,4.73
2019-03-28T18:55:31.014Z,4.60
2019-03-28T18:58:04.002Z,4.40
2019-03-28T19:00:37.797Z,5.87
2019-03-28T19:03:12.533Z,5.20
2019-03-28T19:05:46.065Z,5.67
2019-03-28T19:08:18.613Z,6.00
2019-03-28T19:10:52.090Z,6.23
2019-03-28T19:13:23.876Z,6.00
2019-03-28T19:15:56.024Z,6.97
2019-03-28T19:18:27.935Z,7.40
2019-03-28T19:20:59.977Z,7.67
2019-03-28T19:23:32.001Z,6.93
2019-03-28T19:26:03.897Z,7.97
2019-03-28T19:28:37.336Z,6.93
2019-03-28T19:31:09.209Z,7.33
2019-03-28T19:33:41.182Z,6.23
2019-03-28T19:36:14.071Z,6.57
2019-03-28T19:38:46.323Z,6.73
2019-03-28T19:41:19.225Z,6.97
2019-03-28T19:43:52.965Z,6.67
2019-03-28T19:46:25.020Z,7.17
2019-03-28T19:48:56.875Z,7.30
2019-03-28T19:51:29.079Z,7.70
2019-03-28T19:54:02.088Z,6.37
2019-03-28T19:56:34.068Z,7.23
2019-03-28T19:59:06.101Z,7.80
2019-03-28T20:01:38.000Z,7.23
2019-03-28T20:04:10.267Z,6.90
2019-03-28T20:06:42.310Z,7.40
2019-03-28T20:09:16.517Z,7.50
2019-03-28T20:11:48.492Z,6.97
2019-03-28T20:14:20.770Z,8.20
2019-03-28T20:16:52.716Z,7.83
2019-03-28T20:19:24.600Z,7.27
2019-03-28T20:22:01.197Z,7.10
2019-03-28T20:24:33.028Z,7.33
2019-03-28T20:27:05.653Z,7.47
2019-03-28T20:29:39.920Z,6.70
2019-03-28T20:32:11.943Z,7.73
2019-03-28T20:34:44.214Z,7.40
2019-03-28T20:37:16.558Z,7.93
2019-03-28T20:39:49.503Z,7.90
2019-03-28T20:42:21.816Z,8.83
2019-03-28T20:44:53.849Z,8.77
2019-03-28T20:47:26.034Z,8.43
2019-03-28T20:49:58.610Z,7.87
2019-03-28T20:52:30.469Z,8.87
2019-03-28T20:55:02.223Z,8.43
2019-03-28T20:57:35.910Z,9.13
2019-03-28T21:00:09.024Z,8.57
2019-03-28T21:02:41.346Z,8.60
2019-03-28T21:05:14.683Z,9.23
2019-03-28T21:07:47.044Z,8.00
2019-03-28T21:10:26.240Z,6.30
2019-03-28T21:12:58.292Z,6.30
2019-03-28T21:15:30.097Z,6.10
2019-03-28T21:18:01.934Z,6.00
2019-03-28T21:20:34.082Z,7.97
2019-03-28T21:23:06.081Z,9.20
2019-03-28T21:25:38.355Z,9.03
2019-03-28T21:28:13.807Z,10.37
2019-03-28T21:30:47.715Z,13.93
2019-03-28T21:33:19.501Z,16.17
2019-03-28T21:35:51.505Z,13.07
2019-03-28T21:38:23.369Z,13.33
2019-03-28T21:40:55.236Z,15.50
2019-03-28T21:43:27.109Z,15.20
2019-03-28T21:45:59.235Z,14.90
2019-03-28T21:48:31.015Z,16.83
2019-03-28T21:51:03.112Z,14.70
2019-03-28T21:53:35.172Z,16.63
2019-03-28T21:56:07.086Z,15.63
2019-03-28T21:58:39.285Z,15.90
2019-03-28T22:01:11.373Z,16.87
2019-03-28T22:03:43.417Z,16.00
2019-03-28T22:06:15.195Z,15.33
2019-03-28T22:08:47.093Z,16.17
2019-03-28T22:11:19.033Z,16.60
2019-03-28T22:13:50.979Z,17.30
2019-03-28T22:16:24.034Z,18.00
2019-03-28T22:18:57.437Z,18.60
2019-03-28T22:21:29.286Z,18.50
2019-03-28T22:24:01.153Z,20.00
2019-03-28T22:26:33.213Z,17.47
2019-03-28T22:29:05.183Z,18.97
2019-03-28T22:31:37.077Z,20.20
2019-03-28T22:34:09.152Z,19.70
2019-03-28T22:36:41.728Z,20.03
2019-03-28T22:39:13.632Z,19.40
2019-03-28T22:41:45.489Z,21.20
2019-03-28T22:44:17.467Z,18.60
2019-03-28T22:46:49.416Z,18.23
2019-03-28T22:49:21.532Z,18.47
2019-03-28T22:51:53.498Z,17.73
2019-03-28T22:54:25.611Z,16.43
2019-03-28T22:56:57.422Z,15.23
2019-03-28T22:59:30.617Z,12.00
2019-03-28T23:02:02.926Z,9.77
2019-03-28T23:04:35.978Z,9.57
2019-03-28T23:07:11.237Z,11.70
2019-03-28T23:09:42.073Z,11.50
2019-03-28T23:12:14.177Z,13.50
2019-03-28T23:14:46.709Z,13.07
2019-03-28T23:17:19.026Z,13.23
2019-03-28T23:19:51.026Z,10.67
2019-03-28T23:22:23.004Z,11.43
2019-03-28T23:24:55.147Z,13.43
2019-03-28T23:27:27.197Z,11.60
2019-03-28T23:29:59.584Z,11.50
2019-03-28T23:32:31.987Z,12.20
2019-03-28T23:35:04.210Z,11.10
2019-03-28T23:37:36.306Z,9.27
2019-03-28T23:40:08.725Z,9.90
2019-03-28T23:42:40.790Z,9.00
2019-03-28T23:45:13.142Z,10.70
2019-03-28T23:47:45.336Z,10.80
2019-03-28T23:50:17.071Z,10.50
2019-03-28T23:52:49.313Z,7.70
2019-03-28T23:55:21.435Z,5.83
2019-03-28T23:57:53.406Z,5.27
